Terminal Aerodrome Forecast
Issued by NWS

Home | Current Version | Previous Version | Text Only | Print | Product List | Glossary Off
Versions: 1 2 3 4 5 6 7 8 9 10 11 12 13 14 15 16 17 18 19 20 21

495
FTUS41 KCLE 270205 AAA
TAFFDY
TAF AMD
KFDY 270205Z 2702/2724 05010G20KT 3SM HZ OVC007
     FM270800 05012KT 6SM HZ OVC015
     FM271100 06010KT 2SM BR SCT015
     FM271400 04012KT P6SM BKN100
     FM271600 07010G20KT P6SM OVC035=

USA.gov is the U.S. government's official web portal to all federal, state and local government web resources and services.